createdAt,value
2022-08-11T00:00:12.947Z,101181.34
2022-08-11T00:02:40.882Z,101179.44
2022-08-11T00:05:08.772Z,101182.19
2022-08-11T00:07:36.497Z,101175.84
2022-08-11T00:10:04.185Z,101183.25
2022-08-11T00:12:31.865Z,101180.50
2022-08-11T00:14:59.547Z,101183.25
2022-08-11T00:17:27.295Z,101181.50
2022-08-11T00:20:13.085Z,101184.09
2022-08-11T00:22:42.675Z,101179.84
2022-08-11T00:25:11.122Z,101177.94
2022-08-11T00:27:38.851Z,101181.50
2022-08-11T00:30:06.631Z,101178.78
2022-08-11T00:32:34.643Z,101185.13
2022-08-11T00:35:54.809Z,101185.13
2022-08-11T00:37:50.802Z,101185.50
2022-08-11T00:40:18.538Z,101187.22
2022-08-11T00:42:46.278Z,101189.97
2022-08-11T00:45:13.994Z,101188.91
2022-08-11T00:50:50.920Z,101190.16
2022-08-11T00:53:19.086Z,101190.16
2022-08-11T00:55:47.201Z,101195.66
2022-08-11T00:58:23.438Z,101183.81
2022-08-11T01:00:54.541Z,101191.00
2022-08-11T01:03:22.405Z,101190.16
2022-08-11T01:05:50.447Z,101185.50
2022-08-11T01:08:18.461Z,101179.19
2022-08-11T01:10:46.290Z,101188.25
2022-08-11T01:13:14.018Z,101180.00
2022-08-11T01:15:41.876Z,101180.88
2022-08-11T01:18:23.758Z,101189.31
2022-08-11T01:20:56.322Z,101189.31
2022-08-11T01:23:24.392Z,101191.22
2022-08-11T01:25:56.999Z,101189.31
2022-08-11T01:28:26.092Z,101189.31
2022-08-11T01:30:54.431Z,101194.81
2022-08-11T01:33:23.235Z,101193.97
2022-08-11T01:35:51.008Z,101187.63
2022-08-11T01:38:18.959Z,101189.50
2022-08-11T01:40:46.843Z,101195.22
2022-08-11T01:43:32.033Z,101191.63
2022-08-11T01:45:59.957Z,101181.88
2022-08-11T01:48:27.697Z,101176.41
2022-08-11T01:50:55.531Z,101185.66
2022-08-11T01:53:23.277Z,101181.88
2022-08-11T01:55:55.323Z,101181.22
2022-08-11T01:58:36.265Z,101185.88
2022-08-11T02:01:11.795Z,101188.63
2022-08-11T02:03:39.609Z,101186.72
2022-08-11T02:06:27.388Z,101183.97
2022-08-11T02:08:55.117Z,101183.31
2022-08-11T02:11:31.562Z,101191.38
2022-08-11T02:14:03.358Z,101186.06
2022-08-11T02:16:32.008Z,101184.16
2022-08-11T02:19:17.375Z,101179.50
2022-08-11T02:22:02.769Z,101185.41
2022-08-11T02:24:32.795Z,101184.38
2022-08-11T02:27:00.955Z,101182.47
2022-08-11T02:29:28.711Z,101189.66
2022-08-11T02:32:28.707Z,101185.22
2022-08-11T02:34:59.485Z,101177.38
2022-08-11T02:37:28.255Z,101179.91
2022-08-11T02:39:55.985Z,101183.31
2022-08-11T02:42:32.869Z,101187.13
2022-08-11T02:45:10.366Z,101190.88
2022-08-11T02:47:39.160Z,101194.28
2022-08-11T02:50:07.170Z,101193.44
2022-08-11T02:52:35.796Z,101198.94
2022-08-11T02:55:03.584Z,101192.78
2022-08-11T02:57:31.683Z,101195.34
2022-08-11T02:59:59.608Z,101189.88
2022-08-11T03:02:27.783Z,101194.28
2022-08-11T03:04:55.662Z,101183.50
2022-08-11T03:07:28.130Z,101190.69
2022-08-11T03:09:57.008Z,101197.22
2022-08-11T03:12:42.285Z,101196.38
2022-08-11T03:15:27.656Z,101194.69
2022-08-11T03:17:56.193Z,101197.44
2022-08-11T03:20:23.912Z,101190.03
2022-08-11T03:22:51.667Z,101197.44
2022-08-11T03:25:19.435Z,101201.88
2022-08-11T03:27:47.177Z,101198.94
2022-08-11T03:30:15.419Z,101201.03
2022-08-11T03:32:43.567Z,101198.09
2022-08-11T03:35:10.292Z,101197.22
2022-08-11T03:37:52.076Z,101195.34
2022-08-11T03:40:39.919Z,101197.22
2022-08-11T03:43:07.757Z,101191.94
2022-08-11T03:45:41.002Z,101201.88
2022-08-11T03:48:09.029Z,101194.69
2022-08-11T03:50:36.745Z,101195.53
2022-08-11T03:53:04.482Z,101210.09
2022-08-11T03:55:32.618Z,101203.59
2022-08-11T03:58:00.319Z,101205.28
2022-08-11T04:00:28.097Z,101204.63
2022-08-11T04:02:55.791Z,101200.19
2022-08-11T04:05:24.799Z,101190.22
2022-08-11T04:07:52.698Z,101195.53
2022-08-11T04:10:20.416Z,101200.19
2022-08-11T04:12:48.142Z,101202.72
2022-08-11T04:15:33.307Z,101201.88
2022-08-11T04:18:01.009Z,101200.19
2022-08-11T04:20:28.975Z,101193.84
2022-08-11T04:22:59.102Z,101199.13
2022-08-11T04:25:26.868Z,101197.44
2022-08-11T04:27:54.598Z,101192.78
2022-08-11T04:30:22.378Z,101193.63
2022-08-11T04:32:54.504Z,101195.53
2022-08-11T04:35:22.247Z,101203.59
2022-08-11T04:37:53.589Z,101202.94
2022-08-11T04:40:21.448Z,101197.44
2022-08-11T04:43:06.094Z,101199.13
2022-08-11T04:45:34.556Z,101203.94
2022-08-11T04:48:20.087Z,101200.19
2022-08-11T04:51:17.216Z,101204.84
2022-08-11T04:54:03.209Z,101203.94
2022-08-11T04:56:48.363Z,101206.88
2022-08-11T04:59:33.477Z,101207.72
2022-08-11T05:02:01.440Z,101204.84
2022-08-11T05:04:46.929Z,101205.66
2022-08-11T05:07:14.644Z,101212.00
2022-08-11T05:09:42.299Z,101207.16
2022-08-11T05:12:10.074Z,101206.13
2022-08-11T05:14:55.406Z,101214.16
2022-08-11T05:17:40.985Z,101208.69
2022-08-11T05:20:34.799Z,101207.63
2022-08-11T05:23:20.039Z,101208.69
2022-08-11T05:26:43.779Z,101212.25
2022-08-11T05:29:20.165Z,101211.41
2022-08-11T05:32:06.250Z,101212.25
2022-08-11T05:34:53.358Z,101214.81
2022-08-11T05:37:27.262Z,101215.00
2022-08-11T05:40:12.977Z,101212.09
2022-08-11T05:42:58.238Z,101215.84
2022-08-11T05:46:03.901Z,101215.66
2022-08-11T05:48:48.359Z,101217.75
2022-08-11T05:51:33.626Z,101211.22
2022-08-11T05:54:28.259Z,101216.69
2022-08-11T05:56:57.284Z,101217.56
2022-08-11T05:59:25.002Z,101222.00
2022-08-11T06:01:52.864Z,101226.44
2022-08-11T06:04:20.667Z,101223.69
2022-08-11T06:06:51.251Z,101229.84
2022-08-11T06:09:18.966Z,101230.91
2022-08-11T06:11:49.826Z,101229.84
2022-08-11T06:14:17.596Z,101227.09
2022-08-11T06:16:45.295Z,101230.69
2022-08-11T06:19:13.016Z,101226.06
2022-08-11T06:21:40.716Z,101233.91
2022-08-11T06:24:08.420Z,101225.66
2022-08-11T06:26:49.569Z,101236.84
2022-08-11T06:29:23.852Z,101236.84
2022-08-11T06:32:08.743Z,101240.44
2022-08-11T06:34:36.509Z,101238.34
2022-08-11T06:37:04.217Z,101248.91
2022-08-11T06:39:31.945Z,101241.34
2022-08-11T06:41:59.662Z,101242.00
2022-08-11T06:44:27.440Z,101245.78
2022-08-11T06:47:01.094Z,101241.16
2022-08-11T06:49:46.243Z,101245.16
2022-08-11T06:52:33.999Z,101246.00
2022-08-11T06:55:06.194Z,101248.91
2022-08-11T06:57:51.230Z,101254.41
2022-08-11T07:00:33.188Z,101256.13
2022-08-11T07:03:02.150Z,101249.78
2022-08-11T07:05:29.835Z,101248.75
2022-08-11T07:08:34.444Z,101242.19
2022-08-11T07:11:20.315Z,101243.44
2022-08-11T07:14:05.510Z,101242.41
2022-08-11T07:16:34.780Z,101239.44
2022-08-11T07:19:20.031Z,101237.53
2022-08-11T07:22:05.185Z,101230.34
2022-08-11T07:25:01.348Z,101227.44
2022-08-11T07:27:48.240Z,101231.28
2022-08-11T07:30:15.964Z,101229.56
2022-08-11T07:32:43.698Z,101231.06
2022-08-11T07:35:13.246Z,101231.72
2022-08-11T07:37:41.476Z,101224.97
2022-08-11T07:40:09.233Z,101226.69
2022-08-11T07:42:37.384Z,101231.31
2022-08-11T07:45:23.205Z,101233.88
2022-08-11T07:48:08.641Z,101235.97
2022-08-11T07:50:56.867Z,101233.03
2022-08-11T07:53:24.614Z,101227.53
2022-08-11T07:55:53.547Z,101225.63
2022-08-11T07:58:45.487Z,101235.56
2022-08-11T08:01:37.771Z,101227.53
2022-08-11T08:04:23.316Z,101226.69
2022-08-11T08:07:08.712Z,101222.03
2022-08-11T08:09:53.858Z,101223.94
2022-08-11T08:12:39.395Z,101225.63
2022-08-11T08:15:24.622Z,101224.78
2022-08-11T08:18:09.316Z,101222.03
2022-08-11T08:20:40.795Z,101229.22
2022-08-11T08:23:08.471Z,101227.13
2022-08-11T08:25:36.172Z,101223.53
2022-08-11T08:28:03.893Z,101222.47
2022-08-11T08:30:50.766Z,101227.78
2022-08-11T08:33:18.828Z,101220.81
2022-08-11T08:35:54.688Z,101224.56
2022-08-11T08:38:23.978Z,101214.47
2022-08-11T08:40:51.772Z,101209.81
2022-08-11T08:43:19.504Z,101213.22
2022-08-11T08:45:47.195Z,101208.56
2022-08-11T08:48:14.897Z,101215.97
2022-08-11T08:51:08.065Z,101202.22
2022-08-11T08:53:35.895Z,101195.22
2022-08-11T08:56:03.624Z,101197.75
2022-08-11T08:58:31.348Z,101196.06
2022-08-11T09:00:59.101Z,101190.38
2022-08-11T09:04:04.921Z,101196.91
2022-08-11T09:06:16.723Z,101200.50
2022-08-11T09:08:44.642Z,101197.75
2022-08-11T09:11:30.117Z,101196.72
2022-08-11T09:14:05.105Z,101203.06
2022-08-11T09:16:35.252Z,101187.63
2022-08-11T09:19:03.042Z,101193.13
2022-08-11T09:21:46.234Z,101196.72
2022-08-11T09:24:36.828Z,101188.50
2022-08-11T09:27:04.560Z,101179.59
2022-08-11T09:29:32.458Z,101184.88
2022-08-11T09:32:00.227Z,101187.44
2022-08-11T09:34:27.976Z,101182.13
2022-08-11T09:37:13.100Z,101183.84
2022-08-11T09:39:58.645Z,101183.00
2022-08-11T09:42:47.476Z,101179.38
2022-08-11T09:45:14.218Z,101182.34
2022-08-11T09:47:41.931Z,101176.63
2022-08-11T09:50:09.691Z,101176.44
2022-08-11T09:52:37.509Z,101167.53
2022-08-11T09:55:06.306Z,101174.75
2022-08-11T09:57:51.718Z,101168.84
2022-08-11T10:00:21.059Z,101175.59
2022-08-11T10:02:48.818Z,101161.88
2022-08-11T10:05:36.462Z,101164.22
2022-08-11T10:08:04.242Z,101168.63
2022-08-11T10:10:32.584Z,101166.94
2022-08-11T10:13:02.932Z,101153.22
2022-08-11T10:15:35.563Z,101151.31
2022-08-11T10:18:20.852Z,101146.47
2022-08-11T10:20:50.276Z,101139.06
2022-08-11T10:23:35.328Z,101142.47
2022-08-11T10:26:40.464Z,101147.72
2022-08-11T10:29:36.815Z,101147.91
2022-08-11T10:32:23.185Z,101143.66
2022-08-11T10:34:58.001Z,101140.06
2022-08-11T10:38:07.466Z,101144.31
2022-08-11T10:40:15.719Z,101139.06
2022-08-11T10:43:09.283Z,101147.06
2022-08-11T10:45:54.566Z,101136.09
2022-08-11T10:48:22.267Z,101135.25
2022-08-11T10:51:07.430Z,101127.84
2022-08-11T10:53:52.871Z,101127.00
2022-08-11T10:56:38.168Z,101122.56
2022-08-11T10:59:08.984Z,101120.44
2022-08-11T11:01:37.522Z,101117.06
2022-08-11T11:04:05.311Z,101128.69
2022-08-11T11:06:33.002Z,101114.75
2022-08-11T11:09:04.182Z,101112.00
2022-08-11T11:11:46.488Z,101114.94
2022-08-11T11:14:31.973Z,101120.66
2022-08-11T11:17:20.366Z,101104.38
2022-08-11T11:19:48.103Z,101097.84
2022-08-11T11:22:33.588Z,101099.72
2022-08-11T11:25:01.398Z,101107.97
2022-08-11T11:27:29.122Z,101099.53
2022-08-11T11:29:56.888Z,101091.28
2022-08-11T11:32:24.694Z,101084.72
2022-08-11T11:34:54.023Z,101087.69
2022-08-11T11:37:21.869Z,101078.81
2022-08-11T11:39:49.726Z,101090.63
2022-08-11T11:42:17.567Z,101079.66
2022-08-11T11:47:32.247Z,101069.50
2022-08-11T11:49:59.935Z,101074.16
2022-08-11T11:52:27.651Z,101074.16
2022-08-11T11:54:55.363Z,101067.63
2022-08-11T11:57:40.884Z,101076.72
2022-08-11T12:00:43.442Z,101074.16
2022-08-11T12:03:11.477Z,101059.41
2022-08-11T12:05:40.809Z,101063.16
2022-08-11T12:08:14.543Z,101056.66
2022-08-11T12:10:42.238Z,101055.78
2022-08-11T12:13:27.493Z,101050.09
2022-08-11T12:16:04.425Z,101046.69
2022-08-11T12:18:42.952Z,101042.25
2022-08-11T12:21:10.638Z,101049.44
2022-08-11T12:23:56.940Z,101037.41
2022-08-11T12:26:44.361Z,101034.03
2022-08-11T12:29:32.163Z,101024.06
2022-08-11T12:32:00.589Z,101021.97
2022-08-11T12:34:28.309Z,101024.94
2022-08-11T12:36:56.077Z,101025.78
2022-08-11T12:40:16.199Z,101035.94
2022-08-11T12:42:50.623Z,101028.94
2022-08-11T12:45:29.528Z,101020.69
2022-08-11T12:49:00.882Z,101024.06
2022-08-11T12:51:24.594Z,101016.69
2022-08-11T12:53:52.322Z,101011.22
2022-08-11T12:56:37.515Z,101022.19
2022-08-11T12:59:22.695Z,101006.75
2022-08-11T13:02:07.762Z,101010.34
2022-08-11T13:04:56.179Z,101011.41
2022-08-11T13:07:25.427Z,101008.66
2022-08-11T13:09:53.129Z,101012.03
2022-08-11T13:12:38.555Z,101004.00
2022-08-11T13:15:06.443Z,100999.34
2022-08-11T13:17:44.189Z,100993.84
2022-08-11T13:20:12.783Z,100996.81
2022-08-11T13:22:40.650Z,100989.44
2022-08-11T13:25:08.472Z,100999.34
2022-08-11T13:27:42.762Z,100995.34
2022-08-11T13:30:27.980Z,100982.47
2022-08-11T13:32:55.951Z,100982.69
2022-08-11T13:35:23.737Z,100976.53
2022-08-11T13:38:18.927Z,100972.75
2022-08-11T13:40:55.247Z,100974.00
2022-08-11T13:43:23.959Z,100967.66
2022-08-11T13:45:52.976Z,100969.13
2022-08-11T13:48:20.716Z,100957.53
2022-08-11T13:51:06.006Z,100959.88
2022-08-11T13:53:33.673Z,100954.38
2022-08-11T13:56:01.598Z,100955.00
2022-08-11T13:58:40.210Z,100952.03
2022-08-11T14:02:03.317Z,100943.16
2022-08-11T14:04:30.305Z,100939.78
2022-08-11T14:06:44.721Z,100932.59
2022-08-11T14:09:12.496Z,100929.66
2022-08-11T14:12:21.921Z,100924.16
2022-08-11T14:14:45.338Z,100929.84
2022-08-11T14:17:13.068Z,100920.75
2022-08-11T14:20:01.380Z,100925.19
2022-08-11T14:22:48.094Z,100916.72
2022-08-11T14:25:16.850Z,100913.59
2022-08-11T14:28:34.415Z,100908.09
2022-08-11T14:30:50.111Z,100914.63
2022-08-11T14:33:20.408Z,100913.59
2022-08-11T14:35:49.445Z,100915.25
2022-08-11T14:38:18.117Z,100907.69
2022-08-11T14:41:03.443Z,100907.03
2022-08-11T14:44:14.003Z,100915.25
2022-08-11T14:46:53.786Z,100906.38
2022-08-11T14:49:22.127Z,100898.13
2022-08-11T14:51:49.896Z,100903.22
2022-08-11T14:54:35.251Z,100894.97
2022-08-11T14:57:03.270Z,100898.78
2022-08-11T14:59:30.975Z,100900.47
2022-08-11T15:02:24.751Z,100900.28
2022-08-11T15:04:53.107Z,100890.56
2022-08-11T15:07:25.254Z,100897.53
2022-08-11T15:12:42.013Z,100888.66
2022-08-11T15:15:27.141Z,100879.56
2022-08-11T15:17:54.852Z,100882.31
2022-08-11T15:20:40.263Z,100890.34
2022-08-11T15:23:25.401Z,100886.97
2022-08-11T15:25:53.165Z,100882.31
2022-08-11T15:28:38.614Z,100878.50
2022-08-11T15:31:38.526Z,100878.50
2022-08-11T15:34:23.718Z,100869.66
2022-08-11T15:37:08.823Z,100877.66
2022-08-11T15:39:36.589Z,100869.66
2022-08-11T15:42:27.001Z,100871.31
2022-08-11T15:45:12.143Z,100868.78
2022-08-11T15:47:41.396Z,100865.00
2022-08-11T15:50:13.382Z,100873.22
2022-08-11T15:52:41.698Z,100867.50
2022-08-11T15:55:09.419Z,100860.16
2022-08-11T15:57:54.670Z,100862.03
2022-08-11T16:00:40.115Z,100858.66
2022-08-11T16:03:25.686Z,100859.50
2022-08-11T16:06:13.468Z,100856.75
2022-08-11T16:08:41.287Z,100860.34
2022-08-11T16:11:09.272Z,100856.53
2022-08-11T16:13:54.376Z,100853.59
2022-08-11T16:16:22.323Z,100852.75
2022-08-11T16:18:51.561Z,100849.16
2022-08-11T16:21:33.857Z,100846.41
2022-08-11T16:24:03.065Z,100841.75
2022-08-11T16:27:07.470Z,100839.00
2022-08-11T16:29:18.599Z,100845.53
2022-08-11T16:32:06.431Z,100842.19
2022-08-11T16:34:51.656Z,100838.56
2022-08-11T16:37:42.465Z,100843.88
2022-08-11T16:40:10.420Z,100836.47
2022-08-11T16:43:08.595Z,100837.31
2022-08-11T16:45:56.894Z,100830.97
2022-08-11T16:48:33.488Z,100839.84
2022-08-11T16:51:05.359Z,100838.78
2022-08-11T16:54:00.247Z,100834.16
2022-08-11T16:56:20.863Z,100836.91
2022-08-11T16:59:06.294Z,100846.00
2022-08-11T17:01:34.053Z,100840.28
2022-08-11T17:04:19.226Z,100849.16
2022-08-11T17:07:23.661Z,100854.22
2022-08-11T17:10:39.636Z,100837.31
2022-08-11T17:13:12.636Z,100843.47
2022-08-11T17:15:57.841Z,100844.31
2022-08-11T17:18:44.180Z,100832.88
2022-08-11T17:21:12.785Z,100836.72
2022-08-11T17:23:49.856Z,100837.31
2022-08-11T17:26:17.614Z,100849.38
2022-08-11T17:28:45.323Z,100839.47
2022-08-11T17:31:30.509Z,100843.03
2022-08-11T17:34:16.118Z,100840.50
2022-08-11T17:36:45.739Z,100834.38
2022-08-11T17:39:13.766Z,100833.31
2022-08-11T17:41:59.129Z,100827.81
2022-08-11T17:44:44.289Z,100836.06
2022-08-11T17:47:29.920Z,100836.25
2022-08-11T17:50:14.568Z,100830.56
2022-08-11T17:53:02.919Z,100836.50
2022-08-11T17:55:51.830Z,100834.59
2022-08-11T17:58:38.149Z,100840.91
2022-08-11T18:01:09.249Z,100839.00
2022-08-11T18:03:39.679Z,100844.50
2022-08-11T18:06:07.791Z,100849.16
2022-08-11T18:08:58.094Z,100853.63
2022-08-11T18:12:11.992Z,100850.00
2022-08-11T18:14:48.589Z,100854.88
2022-08-11T18:17:34.063Z,100853.81
2022-08-11T18:20:19.741Z,100856.75
2022-08-11T18:23:05.049Z,100856.75
2022-08-11T18:25:50.104Z,100857.81
2022-08-11T18:28:35.408Z,100864.16
2022-08-11T18:31:20.744Z,100863.31
2022-08-11T18:34:07.779Z,100865.00
2022-08-11T18:36:53.259Z,100864.16
2022-08-11T18:39:38.778Z,100866.91
2022-08-11T18:42:29.309Z,100869.88
2022-08-11T18:45:14.961Z,100867.72
2022-08-11T18:48:00.148Z,100859.50
2022-08-11T18:50:47.387Z,100872.63
2022-08-11T18:53:46.176Z,100871.75
2022-08-11T18:56:31.658Z,100871.75
2022-08-11T18:59:16.835Z,100883.59
2022-08-11T19:02:02.175Z,100879.97
2022-08-11T19:04:47.424Z,100879.97
2022-08-11T19:07:32.717Z,100883.59
2022-08-11T19:10:17.946Z,100882.72
2022-08-11T19:13:03.275Z,100876.41
2022-08-11T19:15:48.579Z,100877.25
2022-08-11T19:18:33.783Z,100882.72
2022-08-11T19:21:19.260Z,100875.38
2022-08-11T19:24:04.708Z,100882.72
2022-08-11T19:26:50.403Z,100892.88
2022-08-11T19:30:12.036Z,100891.19
2022-08-11T19:32:44.112Z,100897.53
2022-08-11T19:35:29.485Z,100896.69
2022-08-11T19:38:14.973Z,100902.19
2022-08-11T19:41:00.491Z,100903.03
2022-08-11T19:43:45.683Z,100904.94
2022-08-11T19:46:31.183Z,100902.19
2022-08-11T19:49:16.277Z,100898.78
2022-08-11T19:52:01.580Z,100899.22
2022-08-11T19:54:47.153Z,100895.41
2022-08-11T19:57:38.766Z,100892.88
2022-08-11T20:00:25.228Z,100904.69
2022-08-11T20:03:15.415Z,100906.59
2022-08-11T20:06:01.011Z,100905.72
2022-08-11T20:08:46.155Z,100897.50
2022-08-11T20:11:31.620Z,100901.31
2022-08-11T20:14:16.815Z,100897.06
2022-08-11T20:17:02.390Z,100896.88
2022-08-11T20:19:55.923Z,100894.31
2022-08-11T20:22:41.985Z,100892.22
2022-08-11T20:25:27.516Z,100899.22
2022-08-11T20:28:12.903Z,100898.38
2022-08-11T20:30:57.948Z,100892.88
2022-08-11T20:33:43.567Z,100899.41
2022-08-11T20:36:29.022Z,100901.31
2022-08-11T20:39:14.208Z,100908.47
2022-08-11T20:41:59.746Z,100903.22
2022-08-11T20:44:44.929Z,100908.47
2022-08-11T20:47:30.303Z,100908.47
2022-08-11T20:50:19.433Z,100913.13
2022-08-11T20:53:05.905Z,100920.34
2022-08-11T20:55:53.911Z,100920.13
2022-08-11T21:01:45.331Z,100918.44
2022-08-11T21:04:31.017Z,100919.28
2022-08-11T21:07:27.595Z,100921.19
2022-08-11T21:10:22.892Z,100923.28
2022-08-11T21:13:25.298Z,100918.84
2022-08-11T21:16:12.076Z,100925.38
2022-08-11T21:19:10.188Z,100924.34
2022-08-11T21:21:55.840Z,100926.03
2022-08-11T21:24:46.818Z,100925.19
2022-08-11T21:27:33.292Z,100929.84
2022-08-11T21:30:18.515Z,100926.22
2022-08-11T21:33:03.902Z,100933.44
2022-08-11T21:35:49.449Z,100932.59
2022-08-11T21:38:34.842Z,100939.75
2022-08-11T21:41:20.389Z,100932.59
2022-08-11T21:44:05.675Z,100936.16
2022-08-11T21:46:54.232Z,100950.75
2022-08-11T21:49:39.449Z,100948.19
2022-08-11T21:52:24.588Z,100949.91
2022-08-11T21:55:09.740Z,100949.69
2022-08-11T21:57:55.242Z,100951.81
2022-08-11T22:00:40.735Z,100955.38
2022-08-11T22:03:26.047Z,100947.34
2022-08-11T22:06:11.621Z,100949.91
2022-08-11T22:08:56.917Z,100943.56
2022-08-11T22:11:42.177Z,100949.06
2022-08-11T22:14:27.405Z,100942.50
2022-08-11T22:17:12.751Z,100943.56
2022-08-11T22:19:58.141Z,100949.06
2022-08-11T22:22:51.223Z,100938.06
2022-08-11T22:25:39.064Z,100944.59
2022-08-11T22:28:31.868Z,100947.34
2022-08-11T22:31:17.073Z,100939.09
2022-08-11T22:34:03.401Z,100942.69
2022-08-11T22:36:49.048Z,100941.84
2022-08-11T22:39:35.441Z,100934.69
2022-08-11T22:42:32.220Z,100941.00
2022-08-11T22:45:27.083Z,100941.44
2022-08-11T22:48:12.533Z,100944.81
2022-08-11T22:50:57.704Z,100942.06
2022-08-11T22:53:57.808Z,100943.94
2022-08-11T22:56:44.022Z,100941.44
2022-08-11T22:59:29.487Z,100950.50
2022-08-11T23:02:14.508Z,100943.94
2022-08-11T23:04:59.836Z,100948.59
2022-08-11T23:07:49.863Z,100953.25
2022-08-11T23:10:37.189Z,100953.25
2022-08-11T23:13:22.782Z,100957.91
2022-08-11T23:16:08.096Z,100957.06
2022-08-11T23:18:53.366Z,100957.06
2022-08-11T23:21:39.270Z,100957.06
2022-08-11T23:24:24.937Z,100961.91
2022-08-11T23:27:10.100Z,100954.31
2022-08-11T23:29:55.940Z,100958.31
2022-08-11T23:32:41.443Z,100956.41
2022-08-11T23:35:39.254Z,100956.41
2022-08-11T23:38:26.124Z,100952.81
2022-08-11T23:41:11.459Z,100950.91
2022-08-11T23:43:56.905Z,100952.81
2022-08-11T23:46:42.055Z,100950.28
2022-08-11T23:49:27.597Z,100947.34
2022-08-11T23:52:12.979Z,100949.22
2022-08-11T23:54:58.065Z,100950.28
2022-08-11T23:57:48.808Z,100945.63
